sensor_id;sensor_type;location;lat;lon;timestamp;P1;durP1;ratioP1;P2;durP2;ratioP2
48002;SDS011;33768;48.578;11.574;2022-09-12T08:57:23;6.63;;;4.90;;
48002;SDS011;33768;48.578;11.574;2022-09-12T09:00:36;5.13;;;4.30;;
48002;SDS011;33768;48.578;11.574;2022-09-12T09:03:55;6.53;;;5.30;;
48002;SDS011;33768;48.578;11.574;2022-09-12T09:07:17;5.87;;;4.50;;
48002;SDS011;33768;48.578;11.574;2022-09-12T09:17:43;4.97;;;4.10;;
48002;SDS011;33768;48.578;11.574;2022-09-12T09:20:51;4.55;;;4.15;;
48002;SDS011;33768;48.578;11.574;2022-09-12T09:24:18;5.45;;;3.42;;
48002;SDS011;33768;48.578;11.574;2022-09-12T09:27:32;9.93;;;4.05;;
48002;SDS011;33768;48.578;11.574;2022-09-12T09:30:42;3.65;;;3.33;;
48002;SDS011;33768;48.578;11.574;2022-09-12T09:33:48;3.85;;;3.55;;
48002;SDS011;33768;48.578;11.574;2022-09-12T09:40:22;4.40;;;3.95;;
48002;SDS011;33768;48.578;11.574;2022-09-12T09:43:30;3.47;;;3.20;;
48002;SDS011;33768;48.578;11.574;2022-09-12T09:46:34;4.05;;;3.33;;
48002;SDS011;33768;48.578;11.574;2022-09-12T09:49:38;4.70;;;3.50;;
48002;SDS011;33768;48.578;11.574;2022-09-12T09:52:43;3.47;;;2.60;;
48002;SDS011;33768;48.578;11.574;2022-09-12T09:55:47;8.63;;;3.47;;
48002;SDS011;33768;48.578;11.574;2022-09-12T09:58:53;10.80;;;3.70;;
48002;SDS011;33768;48.578;11.574;2022-09-12T10:01:58;2.85;;;2.63;;
48002;SDS011;33768;48.578;11.574;2022-09-12T10:05:06;8.35;;;3.35;;
48002;SDS011;33768;48.578;11.574;2022-09-12T10:08:11;3.33;;;2.90;;
48002;SDS011;33768;48.578;11.574;2022-09-12T10:11:24;2.75;;;2.50;;
48002;SDS011;33768;48.578;11.574;2022-09-12T10:14:33;10.82;;;2.90;;
48002;SDS011;33768;48.578;11.574;2022-09-12T10:17:42;3.30;;;2.60;;
48002;SDS011;33768;48.578;11.574;2022-09-12T10:20:47;2.78;;;2.40;;
48002;SDS011;33768;48.578;11.574;2022-09-12T10:23:56;3.25;;;2.40;;
48002;SDS011;33768;48.578;11.574;2022-09-12T10:27:13;3.20;;;2.75;;
48002;SDS011;33768;48.578;11.574;2022-09-12T10:30:21;5.35;;;2.45;;
48002;SDS011;33768;48.578;11.574;2022-09-12T10:33:31;3.08;;;2.80;;
48002;SDS011;33768;48.578;11.574;2022-09-12T10:36:43;2.63;;;2.10;;
48002;SDS011;33768;48.578;11.574;2022-09-12T10:39:48;4.03;;;2.60;;
48002;SDS011;33768;48.578;11.574;2022-09-12T10:42:56;3.53;;;2.50;;
48002;SDS011;33768;48.578;11.574;2022-09-12T10:49:31;2.63;;;2.42;;
48002;SDS011;33768;48.578;11.574;2022-09-12T10:52:40;2.67;;;2.00;;
48002;SDS011;33768;48.578;11.574;2022-09-12T10:55:54;2.28;;;1.67;;
48002;SDS011;33768;48.578;11.574;2022-09-12T11:02:50;2.22;;;1.80;;
48002;SDS011;33768;48.578;11.574;2022-09-12T11:05:57;2.25;;;2.05;;
48002;SDS011;33768;48.578;11.574;2022-09-12T11:09:16;2.30;;;1.80;;
48002;SDS011;33768;48.578;11.574;2022-09-12T11:29:26;4.22;;;1.80;;
48002;SDS011;33768;48.578;11.574;2022-09-12T11:36:31;2.92;;;2.17;;
48002;SDS011;33768;48.578;11.574;2022-09-12T11:39:40;2.90;;;2.08;;
48002;SDS011;33768;48.578;11.574;2022-09-12T11:42:48;3.40;;;1.70;;
48002;SDS011;33768;48.578;11.574;2022-09-12T11:46:03;2.60;;;1.73;;
48002;SDS011;33768;48.578;11.574;2022-09-12T11:52:27;2.10;;;1.60;;
48002;SDS011;33768;48.578;11.574;2022-09-12T11:55:43;2.63;;;2.03;;
48002;SDS011;33768;48.578;11.574;2022-09-12T11:59:03;4.25;;;2.20;;
48002;SDS011;33768;48.578;11.574;2022-09-12T12:02:26;2.00;;;1.90;;
48002;SDS011;33768;48.578;11.574;2022-09-12T12:08:37;2.17;;;2.00;;
48002;SDS011;33768;48.578;11.574;2022-09-12T12:11:47;2.33;;;1.95;;
48002;SDS011;33768;48.578;11.574;2022-09-12T12:14:55;6.10;;;2.22;;
48002;SDS011;33768;48.578;11.574;2022-09-12T12:18:06;5.60;;;2.10;;
48002;SDS011;33768;48.578;11.574;2022-09-12T12:24:38;4.10;;;1.75;;
48002;SDS011;33768;48.578;11.574;2022-09-12T12:35:35;2.20;;;1.70;;
48002;SDS011;33768;48.578;11.574;2022-09-12T12:38:44;3.80;;;2.30;;
48002;SDS011;33768;48.578;11.574;2022-09-12T12:41:48;2.80;;;1.83;;
48002;SDS011;33768;48.578;11.574;2022-09-12T12:44:52;3.50;;;1.70;;
48002;SDS011;33768;48.578;11.574;2022-09-12T12:48:00;2.35;;;2.00;;
48002;SDS011;33768;48.578;11.574;2022-09-12T12:51:29;5.38;;;1.80;;
48002;SDS011;33768;48.578;11.574;2022-09-12T12:57:45;2.92;;;2.00;;
48002;SDS011;33768;48.578;11.574;2022-09-12T13:04:20;2.53;;;1.92;;
48002;SDS011;33768;48.578;11.574;2022-09-12T13:07:32;2.58;;;2.10;;
48002;SDS011;33768;48.578;11.574;2022-09-12T13:10:39;2.90;;;2.10;;
48002;SDS011;33768;48.578;11.574;2022-09-12T13:14:04;2.53;;;2.20;;
48002;SDS011;33768;48.578;11.574;2022-09-12T13:20:35;6.85;;;2.20;;
48002;SDS011;33768;48.578;11.574;2022-09-12T13:24:10;6.72;;;2.35;;
48002;SDS011;33768;48.578;11.574;2022-09-12T13:27:19;3.33;;;2.00;;
48002;SDS011;33768;48.578;11.574;2022-09-12T13:30:25;4.03;;;2.10;;
48002;SDS011;33768;48.578;11.574;2022-09-12T13:33:33;1.75;;;1.65;;
48002;SDS011;33768;48.578;11.574;2022-09-12T13:43:36;3.45;;;1.67;;
48002;SDS011;33768;48.578;11.574;2022-09-12T13:46:44;22.77;;;3.20;;
48002;SDS011;33768;48.578;11.574;2022-09-12T13:49:49;2.35;;;1.65;;
48002;SDS011;33768;48.578;11.574;2022-09-12T13:52:55;1.90;;;1.75;;
48002;SDS011;33768;48.578;11.574;2022-09-12T13:56:02;5.13;;;1.60;;
48002;SDS011;33768;48.578;11.574;2022-09-12T13:59:08;5.93;;;1.92;;
48002;SDS011;33768;48.578;11.574;2022-09-12T14:02:17;1.90;;;1.65;;
48002;SDS011;33768;48.578;11.574;2022-09-12T14:05:24;1.95;;;1.70;;
48002;SDS011;33768;48.578;11.574;2022-09-12T14:08:29;6.15;;;1.73;;
48002;SDS011;33768;48.578;11.574;2022-09-12T14:11:34;3.42;;;2.00;;
48002;SDS011;33768;48.578;11.574;2022-09-12T14:14:40;3.50;;;1.85;;
48002;SDS011;33768;48.578;11.574;2022-09-12T14:17:47;1.77;;;1.60;;
48002;SDS011;33768;48.578;11.574;2022-09-12T14:20:55;1.88;;;1.55;;
48002;SDS011;33768;48.578;11.574;2022-09-12T14:24:04;3.13;;;1.60;;
48002;SDS011;33768;48.578;11.574;2022-09-12T14:27:11;6.15;;;1.70;;
48002;SDS011;33768;48.578;11.574;2022-09-12T14:30:20;2.33;;;1.98;;
48002;SDS011;33768;48.578;11.574;2022-09-12T14:33:45;1.73;;;1.63;;
48002;SDS011;33768;48.578;11.574;2022-09-12T14:36:53;2.20;;;1.63;;
48002;SDS011;33768;48.578;11.574;2022-09-12T14:40:00;1.60;;;1.50;;
48002;SDS011;33768;48.578;11.574;2022-09-12T14:43:13;1.90;;;1.70;;
48002;SDS011;33768;48.578;11.574;2022-09-12T14:46:38;1.88;;;1.45;;
48002;SDS011;33768;48.578;11.574;2022-09-12T14:49:44;2.25;;;1.73;;
48002;SDS011;33768;48.578;11.574;2022-09-12T14:56:51;3.17;;;1.70;;
48002;SDS011;33768;48.578;11.574;2022-09-12T15:03:48;1.77;;;1.67;;
48002;SDS011;33768;48.578;11.574;2022-09-12T15:06:54;3.28;;;1.90;;
48002;SDS011;33768;48.578;11.574;2022-09-12T15:09:58;2.55;;;1.77;;
48002;SDS011;33768;48.578;11.574;2022-09-12T15:16:11;2.08;;;1.50;;
48002;SDS011;33768;48.578;11.574;2022-09-12T15:19:15;2.25;;;1.77;;
48002;SDS011;33768;48.578;11.574;2022-09-12T15:22:20;2.17;;;1.98;;
48002;SDS011;33768;48.578;11.574;2022-09-12T15:25:26;4.55;;;2.63;;
48002;SDS011;33768;48.578;11.574;2022-09-12T15:28:31;4.10;;;2.10;;
48002;SDS011;33768;48.578;11.574;2022-09-12T15:31:35;8.75;;;2.58;;
48002;SDS011;33768;48.578;11.574;2022-09-12T15:34:39;3.70;;;2.08;;
48002;SDS011;33768;48.578;11.574;2022-09-12T15:37:43;6.60;;;2.55;;
48002;SDS011;33768;48.578;11.574;2022-09-12T15:40:48;3.30;;;2.47;;
48002;SDS011;33768;48.578;11.574;2022-09-12T15:43:56;3.27;;;2.17;;
48002;SDS011;33768;48.578;11.574;2022-09-12T15:47:00;4.43;;;3.30;;
48002;SDS011;33768;48.578;11.574;2022-09-12T15:50:05;4.50;;;3.13;;
48002;SDS011;33768;48.578;11.574;2022-09-12T15:53:13;7.20;;;3.90;;
48002;SDS011;33768;48.578;11.574;2022-09-12T15:56:19;8.37;;;2.43;;
48002;SDS011;33768;48.578;11.574;2022-09-12T15:59:24;7.83;;;2.77;;
48002;SDS011;33768;48.578;11.574;2022-09-12T16:02:29;5.77;;;2.70;;
48002;SDS011;33768;48.578;11.574;2022-09-12T16:05:33;2.53;;;2.33;;
48002;SDS011;33768;48.578;11.574;2022-09-12T16:08:37;2.50;;;2.00;;
48002;SDS011;33768;48.578;11.574;2022-09-12T16:11:41;4.47;;;2.67;;
48002;SDS011;33768;48.578;11.574;2022-09-12T16:14:45;3.70;;;2.40;;
48002;SDS011;33768;48.578;11.574;2022-09-12T16:17:50;3.97;;;1.63;;
48002;SDS011;33768;48.578;11.574;2022-09-12T16:20:57;13.13;;;3.03;;
48002;SDS011;33768;48.578;11.574;2022-09-12T16:24:01;9.97;;;2.57;;
48002;SDS011;33768;48.578;11.574;2022-09-12T16:27:06;2.00;;;1.70;;
48002;SDS011;33768;48.578;11.574;2022-09-12T16:30:10;5.50;;;2.23;;
48002;SDS011;33768;48.578;11.574;2022-09-12T16:33:15;5.43;;;1.90;;
48002;SDS011;33768;48.578;11.574;2022-09-12T16:36:20;5.03;;;2.17;;
48002;SDS011;33768;48.578;11.574;2022-09-12T16:39:24;18.80;;;2.57;;
48002;SDS011;33768;48.578;11.574;2022-09-12T16:42:29;5.13;;;1.90;;
48002;SDS011;33768;48.578;11.574;2022-09-12T16:45:33;6.30;;;2.13;;
48002;SDS011;33768;48.578;11.574;2022-09-12T16:48:41;8.67;;;2.37;;
48002;SDS011;33768;48.578;11.574;2022-09-12T16:51:47;11.40;;;2.10;;
48002;SDS011;33768;48.578;11.574;2022-09-12T16:54:51;10.63;;;5.40;;
48002;SDS011;33768;48.578;11.574;2022-09-12T16:57:56;3.93;;;3.33;;
48002;SDS011;33768;48.578;11.574;2022-09-12T17:01:04;4.73;;;2.80;;
48002;SDS011;33768;48.578;11.574;2022-09-12T17:04:21;5.40;;;2.70;;
48002;SDS011;33768;48.578;11.574;2022-09-12T17:07:26;3.87;;;2.20;;
48002;SDS011;33768;48.578;11.574;2022-09-12T17:10:30;6.93;;;2.20;;
48002;SDS011;33768;48.578;11.574;2022-09-12T17:13:35;2.40;;;2.17;;
48002;SDS011;33768;48.578;11.574;2022-09-12T17:16:41;2.87;;;2.20;;
48002;SDS011;33768;48.578;11.574;2022-09-12T17:19:47;3.20;;;2.30;;
48002;SDS011;33768;48.578;11.574;2022-09-12T17:22:51;2.90;;;2.60;;
48002;SDS011;33768;48.578;11.574;2022-09-12T17:25:55;11.07;;;3.90;;
48002;SDS011;33768;48.578;11.574;2022-09-12T17:29:00;8.43;;;3.57;;
48002;SDS011;33768;48.578;11.574;2022-09-12T17:32:04;6.17;;;3.10;;
48002;SDS011;33768;48.578;11.574;2022-09-12T17:35:08;8.60;;;3.43;;
48002;SDS011;33768;48.578;11.574;2022-09-12T17:38:13;3.03;;;2.73;;
48002;SDS011;33768;48.578;11.574;2022-09-12T17:41:19;2.80;;;2.50;;
48002;SDS011;33768;48.578;11.574;2022-09-12T17:44:24;3.10;;;2.80;;
48002;SDS011;33768;48.578;11.574;2022-09-12T17:47:32;2.70;;;2.50;;
48002;SDS011;33768;48.578;11.574;2022-09-12T17:50:37;4.00;;;2.90;;
48002;SDS011;33768;48.578;11.574;2022-09-12T17:53:43;27.60;;;4.60;;
48002;SDS011;33768;48.578;11.574;2022-09-12T17:56:47;6.27;;;2.90;;
48002;SDS011;33768;48.578;11.574;2022-09-12T17:59:54;3.63;;;2.73;;
48002;SDS011;33768;48.578;11.574;2022-09-12T18:02:58;3.40;;;3.03;;
48002;SDS011;33768;48.578;11.574;2022-09-12T18:06:03;4.67;;;3.27;;
48002;SDS011;33768;48.578;11.574;2022-09-12T18:09:07;3.10;;;2.77;;
48002;SDS011;33768;48.578;11.574;2022-09-12T18:12:12;5.63;;;3.33;;
48002;SDS011;33768;48.578;11.574;2022-09-12T18:15:17;13.73;;;3.70;;
48002;SDS011;33768;48.578;11.574;2022-09-12T18:18:21;3.33;;;2.67;;
48002;SDS011;33768;48.578;11.574;2022-09-12T18:21:27;4.53;;;2.93;;
48002;SDS011;33768;48.578;11.574;2022-09-12T18:24:32;3.70;;;3.30;;
48002;SDS011;33768;48.578;11.574;2022-09-12T18:27:37;4.10;;;3.67;;
48002;SDS011;33768;48.578;11.574;2022-09-12T18:30:41;5.40;;;3.50;;
48002;SDS011;33768;48.578;11.574;2022-09-12T18:33:45;4.03;;;3.40;;
48002;SDS011;33768;48.578;11.574;2022-09-12T18:36:50;5.40;;;3.67;;
48002;SDS011;33768;48.578;11.574;2022-09-12T18:39:57;4.33;;;3.43;;
48002;SDS011;33768;48.578;11.574;2022-09-12T18:43:02;4.00;;;3.60;;
48002;SDS011;33768;48.578;11.574;2022-09-12T18:46:11;6.13;;;4.27;;
48002;SDS011;33768;48.578;11.574;2022-09-12T18:49:17;7.80;;;4.60;;
48002;SDS011;33768;48.578;11.574;2022-09-12T18:52:21;4.73;;;3.70;;
48002;SDS011;33768;48.578;11.574;2022-09-12T18:55:25;5.20;;;4.30;;
48002;SDS011;33768;48.578;11.574;2022-09-12T18:58:29;9.40;;;4.50;;
48002;SDS011;33768;48.578;11.574;2022-09-12T19:01:34;7.13;;;4.40;;
48002;SDS011;33768;48.578;11.574;2022-09-12T19:04:40;7.33;;;4.17;;
48002;SDS011;33768;48.578;11.574;2022-09-12T19:07:44;7.50;;;4.13;;
48002;SDS011;33768;48.578;11.574;2022-09-12T19:10:55;5.13;;;4.30;;
48002;SDS011;33768;48.578;11.574;2022-09-12T19:14:25;4.60;;;4.20;;
48002;SDS011;33768;48.578;11.574;2022-09-12T19:17:29;4.70;;;4.20;;
48002;SDS011;33768;48.578;11.574;2022-09-12T19:20:34;8.77;;;4.33;;
48002;SDS011;33768;48.578;11.574;2022-09-12T19:23:39;9.33;;;4.80;;
48002;SDS011;33768;48.578;11.574;2022-09-12T19:26:44;8.53;;;4.70;;
48002;SDS011;33768;48.578;11.574;2022-09-12T19:29:48;4.63;;;4.23;;
48002;SDS011;33768;48.578;11.574;2022-09-12T19:32:52;7.57;;;4.70;;
48002;SDS011;33768;48.578;11.574;2022-09-12T19:36:00;5.23;;;4.73;;
48002;SDS011;33768;48.578;11.574;2022-09-12T19:39:06;5.53;;;4.80;;
48002;SDS011;33768;48.578;11.574;2022-09-12T19:42:11;5.23;;;4.17;;
48002;SDS011;33768;48.578;11.574;2022-09-12T19:45:16;9.00;;;5.07;;
48002;SDS011;33768;48.578;11.574;2022-09-12T19:48:21;5.60;;;5.10;;
48002;SDS011;33768;48.578;11.574;2022-09-12T19:51:25;6.00;;;5.40;;
48002;SDS011;33768;48.578;11.574;2022-09-12T19:54:29;9.80;;;5.30;;
48002;SDS011;33768;48.578;11.574;2022-09-12T19:57:35;8.47;;;4.70;;
48002;SDS011;33768;48.578;11.574;2022-09-12T20:00:39;7.20;;;4.80;;
48002;SDS011;33768;48.578;11.574;2022-09-12T20:03:44;9.80;;;5.83;;
48002;SDS011;33768;48.578;11.574;2022-09-12T20:06:52;7.57;;;4.90;;
48002;SDS011;33768;48.578;11.574;2022-09-12T20:09:56;8.23;;;5.90;;
48002;SDS011;33768;48.578;11.574;2022-09-12T20:13:00;8.77;;;6.53;;
48002;SDS011;33768;48.578;11.574;2022-09-12T20:19:10;7.00;;;5.83;;
48002;SDS011;33768;48.578;11.574;2022-09-12T20:22:14;7.37;;;6.67;;
48002;SDS011;33768;48.578;11.574;2022-09-12T20:25:19;7.83;;;6.67;;
48002;SDS011;33768;48.578;11.574;2022-09-12T20:28:23;7.37;;;5.77;;
48002;SDS011;33768;48.578;11.574;2022-09-12T20:31:27;7.50;;;6.73;;
48002;SDS011;33768;48.578;11.574;2022-09-12T20:34:31;10.97;;;6.53;;
48002;SDS011;33768;48.578;11.574;2022-09-12T20:37:35;8.07;;;6.27;;
48002;SDS011;33768;48.578;11.574;2022-09-12T20:40:46;6.63;;;5.93;;
48002;SDS011;33768;48.578;11.574;2022-09-12T20:43:51;13.20;;;6.70;;
48002;SDS011;33768;48.578;11.574;2022-09-12T20:46:58;8.90;;;6.70;;
48002;SDS011;33768;48.578;11.574;2022-09-12T20:50:02;7.07;;;6.23;;
48002;SDS011;33768;48.578;11.574;2022-09-12T20:53:06;8.03;;;7.23;;
48002;SDS011;33768;48.578;11.574;2022-09-12T20:56:11;7.30;;;6.50;;
48002;SDS011;33768;48.578;11.574;2022-09-12T20:59:15;8.20;;;6.23;;
48002;SDS011;33768;48.578;11.574;2022-09-12T21:02:19;7.20;;;6.50;;
48002;SDS011;33768;48.578;11.574;2022-09-12T21:05:23;9.20;;;6.73;;
48002;SDS011;33768;48.578;11.574;2022-09-12T21:08:29;8.73;;;6.73;;
48002;SDS011;33768;48.578;11.574;2022-09-12T21:11:34;7.70;;;6.93;;
48002;SDS011;33768;48.578;11.574;2022-09-12T21:14:39;8.37;;;6.57;;
48002;SDS011;33768;48.578;11.574;2022-09-12T21:17:44;6.73;;;6.03;;
48002;SDS011;33768;48.578;11.574;2022-09-12T21:20:52;8.63;;;6.90;;
48002;SDS011;33768;48.578;11.574;2022-09-12T21:23:57;8.43;;;7.00;;
48002;SDS011;33768;48.578;11.574;2022-09-12T21:27:02;7.63;;;6.83;;
48002;SDS011;33768;48.578;11.574;2022-09-12T21:30:06;8.10;;;6.90;;
48002;SDS011;33768;48.578;11.574;2022-09-12T21:33:10;10.47;;;7.63;;
48002;SDS011;33768;48.578;11.574;2022-09-12T21:36:14;9.27;;;6.53;;
48002;SDS011;33768;48.578;11.574;2022-09-12T21:39:18;7.10;;;6.40;;
48002;SDS011;33768;48.578;11.574;2022-09-12T21:42:23;6.97;;;6.27;;
48002;SDS011;33768;48.578;11.574;2022-09-12T21:45:27;9.20;;;6.77;;
48002;SDS011;33768;48.578;11.574;2022-09-12T21:48:32;7.90;;;5.83;;
48002;SDS011;33768;48.578;11.574;2022-09-12T21:51:37;12.67;;;6.53;;
48002;SDS011;33768;48.578;11.574;2022-09-12T21:54:41;8.80;;;7.03;;
48002;SDS011;33768;48.578;11.574;2022-09-12T21:57:45;7.93;;;6.47;;
48002;SDS011;33768;48.578;11.574;2022-09-12T22:00:50;8.00;;;6.73;;
48002;SDS011;33768;48.578;11.574;2022-09-12T22:03:54;9.83;;;6.60;;
48002;SDS011;33768;48.578;11.574;2022-09-12T22:06:58;7.17;;;6.47;;
48002;SDS011;33768;48.578;11.574;2022-09-12T22:10:05;7.73;;;6.93;;
48002;SDS011;33768;48.578;11.574;2022-09-12T22:13:10;6.93;;;6.20;;
48002;SDS011;33768;48.578;11.574;2022-09-12T22:16:14;8.97;;;7.53;;
48002;SDS011;33768;48.578;11.574;2022-09-12T22:19:18;9.80;;;6.47;;
48002;SDS011;33768;48.578;11.574;2022-09-12T22:22:23;8.43;;;6.73;;
48002;SDS011;33768;48.578;11.574;2022-09-12T22:25:46;8.73;;;6.23;;
48002;SDS011;33768;48.578;11.574;2022-09-12T22:28:50;9.43;;;6.73;;
48002;SDS011;33768;48.578;11.574;2022-09-12T22:31:54;11.33;;;6.50;;
48002;SDS011;33768;48.578;11.574;2022-09-12T22:34:59;9.07;;;6.53;;
48002;SDS011;33768;48.578;11.574;2022-09-12T22:38:03;7.27;;;6.57;;
48002;SDS011;33768;48.578;11.574;2022-09-12T22:41:08;10.27;;;6.60;;
48002;SDS011;33768;48.578;11.574;2022-09-12T22:44:14;9.50;;;6.67;;
48002;SDS011;33768;48.578;11.574;2022-09-12T22:47:20;8.43;;;6.13;;
48002;SDS011;33768;48.578;11.574;2022-09-12T22:50:24;9.67;;;6.77;;
48002;SDS011;33768;48.578;11.574;2022-09-12T22:53:29;10.90;;;7.03;;
48002;SDS011;33768;48.578;11.574;2022-09-12T22:56:33;7.10;;;6.40;;
48002;SDS011;33768;48.578;11.574;2022-09-12T22:59:38;15.30;;;6.87;;
48002;SDS011;33768;48.578;11.574;2022-09-12T23:02:42;8.40;;;7.03;;
48002;SDS011;33768;48.578;11.574;2022-09-12T23:05:46;11.20;;;7.73;;
48002;SDS011;33768;48.578;11.574;2022-09-12T23:08:51;8.10;;;7.23;;
48002;SDS011;33768;48.578;11.574;2022-09-12T23:11:55;10.93;;;7.13;;
48002;SDS011;33768;48.578;11.574;2022-09-12T23:14:59;11.63;;;7.50;;
48002;SDS011;33768;48.578;11.574;2022-09-12T23:18:03;11.07;;;7.10;;
48002;SDS011;33768;48.578;11.574;2022-09-12T23:21:08;10.87;;;7.60;;
48002;SDS011;33768;48.578;11.574;2022-09-12T23:24:14;9.63;;;8.00;;
48002;SDS011;33768;48.578;11.574;2022-09-12T23:27:18;7.93;;;7.17;;
48002;SDS011;33768;48.578;11.574;2022-09-12T23:30:22;9.43;;;7.60;;
48002;SDS011;33768;48.578;11.574;2022-09-12T23:33:27;13.77;;;8.03;;
48002;SDS011;33768;48.578;11.574;2022-09-12T23:36:32;8.30;;;7.40;;
48002;SDS011;33768;48.578;11.574;2022-09-12T23:39:37;10.83;;;7.60;;
48002;SDS011;33768;48.578;11.574;2022-09-12T23:42:41;9.87;;;7.87;;
48002;SDS011;33768;48.578;11.574;2022-09-12T23:45:45;8.60;;;6.70;;
48002;SDS011;33768;48.578;11.574;2022-09-12T23:48:49;11.57;;;7.10;;
48002;SDS011;33768;48.578;11.574;2022-09-12T23:51:56;8.77;;;6.70;;
48002;SDS011;33768;48.578;11.574;2022-09-12T23:55:00;9.67;;;6.90;;
48002;SDS011;33768;48.578;11.574;2022-09-12T23:58:04;8.67;;;7.70;;
